createdAt,value
2018-12-12T00:01:47.184Z,-0.60
2018-12-12T00:04:13.350Z,-0.60
2018-12-12T00:06:39.495Z,-0.60
2018-12-12T00:09:05.806Z,-0.60
2018-12-12T00:14:34.735Z,-0.80
2018-12-12T00:17:01.015Z,-0.90
2018-12-12T00:19:27.249Z,-0.90
2018-12-12T00:21:53.577Z,-0.90
2018-12-12T00:24:19.931Z,-0.90
2018-12-12T00:26:46.298Z,-0.90
2018-12-12T00:29:12.656Z,-1.00
2018-12-12T00:31:38.931Z,-1.00
2018-12-12T00:34:05.182Z,-1.00
2018-12-12T00:36:31.494Z,-1.00
2018-12-12T00:38:57.783Z,-1.00
2018-12-12T00:41:24.049Z,-0.90
2018-12-12T00:43:50.331Z,-1.00
2018-12-12T00:46:16.639Z,-1.10
2018-12-12T00:48:43.049Z,-1.10
2018-12-12T00:51:09.309Z,-1.20
2018-12-12T00:53:35.612Z,-1.20
2018-12-12T00:56:01.862Z,-1.20
2018-12-12T00:58:28.192Z,-1.10
2018-12-12T01:00:54.545Z,-1.00
2018-12-12T01:03:20.829Z,-1.00
2018-12-12T01:05:47.168Z,-1.00
2018-12-12T01:08:13.460Z,-0.90
2018-12-12T01:10:39.724Z,-0.90
2018-12-12T01:13:06.160Z,-0.80
2018-12-12T01:15:32.563Z,-0.90
2018-12-12T01:17:58.831Z,-0.80
2018-12-12T01:20:25.147Z,-0.90
2018-12-12T01:22:51.390Z,-0.90
2018-12-12T01:25:17.679Z,-0.90
2018-12-12T01:27:43.952Z,-0.90
2018-12-12T01:30:10.222Z,-0.90
2018-12-12T01:32:36.556Z,-0.90
2018-12-12T01:35:03.908Z,-0.80
2018-12-12T01:37:30.601Z,-0.80
2018-12-12T01:39:56.932Z,-0.80
2018-12-12T01:42:23.208Z,-0.80
2018-12-12T01:44:49.587Z,-0.70
2018-12-12T01:47:15.890Z,-0.80
2018-12-12T01:49:42.162Z,-0.80
2018-12-12T01:52:08.444Z,-0.80
2018-12-12T01:54:34.882Z,-0.70
2018-12-12T01:57:01.146Z,-0.70
2018-12-12T01:59:27.564Z,-0.80
2018-12-12T02:01:53.793Z,-0.80
2018-12-12T02:04:20.090Z,-0.80
2018-12-12T02:06:46.319Z,-0.80
2018-12-12T02:09:12.652Z,-0.80
2018-12-12T02:11:38.929Z,-0.80
2018-12-12T02:14:05.291Z,-0.80
2018-12-12T02:16:31.665Z,-0.80
2018-12-12T02:18:58.169Z,-0.80
2018-12-12T02:21:24.494Z,-0.80
2018-12-12T02:23:50.779Z,-0.70
2018-12-12T02:26:19.152Z,-0.70
2018-12-12T02:28:45.466Z,-0.70
2018-12-12T02:31:11.989Z,-0.70
2018-12-12T02:33:38.296Z,-0.70
2018-12-12T02:36:04.696Z,-0.70
2018-12-12T02:38:31.018Z,-0.80
2018-12-12T02:40:57.275Z,-0.80
2018-12-12T02:43:23.673Z,-0.70
2018-12-12T02:45:50.001Z,-0.70
2018-12-12T02:48:16.407Z,-0.70
2018-12-12T02:50:42.670Z,-0.60
2018-12-12T02:53:08.928Z,-0.60
2018-12-12T02:55:35.208Z,-0.70
2018-12-12T02:58:01.494Z,-0.70
2018-12-12T03:00:27.805Z,-0.70
2018-12-12T03:02:54.095Z,-0.60
2018-12-12T03:05:20.547Z,-0.60
2018-12-12T03:07:46.817Z,-0.50
2018-12-12T03:10:13.074Z,-0.60
2018-12-12T03:12:39.533Z,-0.50
2018-12-12T03:15:06.100Z,-0.50
2018-12-12T03:17:32.728Z,-0.50
2018-12-12T03:19:59.007Z,-0.50
2018-12-12T03:22:25.281Z,-0.40
2018-12-12T03:24:52.642Z,-0.40
2018-12-12T03:27:18.911Z,-0.40
2018-12-12T03:29:45.198Z,-0.40
2018-12-12T03:32:11.512Z,-0.40
2018-12-12T03:34:37.807Z,-0.40
2018-12-12T03:37:04.114Z,-0.40
2018-12-12T03:39:31.675Z,-0.40
2018-12-12T03:41:57.912Z,-0.40
2018-12-12T03:44:24.269Z,-0.40
2018-12-12T03:46:50.583Z,-0.40
2018-12-12T03:49:16.872Z,-0.40
2018-12-12T03:51:43.131Z,-0.40
2018-12-12T03:54:09.468Z,-0.40
2018-12-12T03:56:35.719Z,-0.40
2018-12-12T03:59:02.077Z,-0.40
2018-12-12T04:01:28.349Z,-0.40
2018-12-12T04:03:54.620Z,-0.40
2018-12-12T04:06:20.936Z,-0.40
2018-12-12T04:08:47.206Z,-0.40
2018-12-12T04:11:13.474Z,-0.30
2018-12-12T04:13:39.800Z,-0.30
2018-12-12T04:16:06.084Z,-0.30
2018-12-12T04:18:32.395Z,-0.30
2018-12-12T04:20:58.713Z,-0.30
2018-12-12T04:23:25.013Z,-0.20
2018-12-12T04:25:51.292Z,-0.30
2018-12-12T04:28:17.629Z,-0.20
2018-12-12T04:30:43.912Z,-0.30
2018-12-12T04:33:10.192Z,-0.20
2018-12-12T04:35:36.614Z,-0.20
2018-12-12T04:38:02.904Z,-0.20
2018-12-12T04:40:29.187Z,-0.20
2018-12-12T04:42:55.463Z,-0.20
2018-12-12T04:45:21.729Z,-0.10
2018-12-12T04:47:48.084Z,-0.20
2018-12-12T04:50:14.362Z,-0.20
2018-12-12T04:52:40.661Z,-0.20
2018-12-12T04:55:06.974Z,-0.20
2018-12-12T04:57:33.278Z,-0.20
2018-12-12T04:59:59.576Z,-0.20
2018-12-12T05:02:26.938Z,-0.20
2018-12-12T05:04:54.144Z,-0.20
2018-12-12T05:07:20.493Z,-0.20
2018-12-12T05:09:46.729Z,-0.20
2018-12-12T05:12:13.012Z,-0.20
2018-12-12T05:14:39.302Z,-0.10
2018-12-12T05:17:05.664Z,-0.10
2018-12-12T05:19:32.037Z,-0.10
2018-12-12T05:21:58.336Z,-0.10
2018-12-12T05:24:24.607Z,-0.10
2018-12-12T05:26:51.024Z,-0.10
2018-12-12T05:29:17.504Z,-0.10
2018-12-12T05:31:43.930Z,-0.10
2018-12-12T05:34:10.304Z,0.00
2018-12-12T05:36:36.630Z,0.00
2018-12-12T05:39:05.686Z,0.00
2018-12-12T05:41:31.982Z,0.00
2018-12-12T05:43:58.244Z,0.00
2018-12-12T05:46:24.564Z,0.00
2018-12-12T05:48:51.703Z,0.00
2018-12-12T05:51:17.966Z,0.00
2018-12-12T05:53:44.258Z,0.00
2018-12-12T05:56:14.116Z,0.10
2018-12-12T05:58:38.823Z,0.10
2018-12-12T06:01:05.128Z,0.10
2018-12-12T06:03:31.401Z,0.10
2018-12-12T06:05:57.675Z,0.10
2018-12-12T06:08:23.939Z,0.10
2018-12-12T06:10:50.188Z,0.10
2018-12-12T06:13:16.460Z,0.20
2018-12-12T06:15:42.765Z,0.20
2018-12-12T06:18:09.025Z,0.20
2018-12-12T06:20:35.353Z,0.20
2018-12-12T06:23:01.717Z,0.20
2018-12-12T06:25:28.038Z,0.30
2018-12-12T06:27:54.311Z,0.30
2018-12-12T06:30:20.568Z,0.30
2018-12-12T06:32:46.852Z,0.30
2018-12-12T06:35:13.188Z,0.30
2018-12-12T06:37:39.454Z,0.30
2018-12-12T06:40:05.959Z,0.30
2018-12-12T06:42:32.235Z,0.30
2018-12-12T06:44:58.509Z,0.30
2018-12-12T06:47:24.788Z,0.30
2018-12-12T06:49:51.110Z,0.30
2018-12-12T06:52:17.400Z,0.30
2018-12-12T06:54:43.710Z,0.20
2018-12-12T06:57:09.996Z,0.20
2018-12-12T06:59:36.308Z,0.30
2018-12-12T07:02:03.074Z,0.30
2018-12-12T07:04:29.526Z,0.30
2018-12-12T07:06:56.763Z,0.30
2018-12-12T07:09:23.034Z,0.30
2018-12-12T07:11:49.354Z,0.30
2018-12-12T07:14:15.617Z,0.30
2018-12-12T07:16:41.903Z,0.30
2018-12-12T07:19:08.177Z,0.30
2018-12-12T07:21:34.422Z,0.30
2018-12-12T07:24:00.766Z,0.30
2018-12-12T07:26:27.066Z,0.40
2018-12-12T07:28:53.332Z,0.40
2018-12-12T07:31:19.746Z,0.40
2018-12-12T07:33:46.008Z,0.40
2018-12-12T07:36:12.415Z,0.40
2018-12-12T07:38:38.676Z,0.40
2018-12-12T07:41:05.085Z,0.40
2018-12-12T07:43:31.345Z,0.40
2018-12-12T07:45:57.602Z,0.40
2018-12-12T07:48:23.864Z,0.50
2018-12-12T07:50:50.134Z,0.40
2018-12-12T07:53:16.436Z,0.40
2018-12-12T07:55:42.744Z,0.40
2018-12-12T07:58:09.018Z,0.40
2018-12-12T08:00:35.308Z,0.40
2018-12-12T08:03:05.394Z,0.40
2018-12-12T08:05:29.895Z,0.40
2018-12-12T08:07:56.180Z,0.40
2018-12-12T08:10:22.478Z,0.40
2018-12-12T08:12:48.755Z,0.40
2018-12-12T08:15:15.015Z,0.40
2018-12-12T08:17:41.280Z,0.40
2018-12-12T08:20:07.552Z,0.50
2018-12-12T08:22:33.816Z,0.50
2018-12-12T08:25:00.149Z,0.50
2018-12-12T08:27:26.437Z,0.50
2018-12-12T08:29:52.716Z,0.50
2018-12-12T08:32:18.980Z,0.60
2018-12-12T08:34:45.257Z,0.60
2018-12-12T08:37:11.457Z,0.60
2018-12-12T08:39:37.724Z,0.60
2018-12-12T08:42:04.004Z,0.60
2018-12-12T08:44:30.313Z,0.60
2018-12-12T08:46:56.590Z,0.70
2018-12-12T08:49:23.046Z,0.70
2018-12-12T08:51:49.305Z,0.70
2018-12-12T08:54:15.579Z,0.70
2018-12-12T08:56:41.913Z,0.70
2018-12-12T08:59:08.217Z,0.70
2018-12-12T09:01:34.702Z,0.80
2018-12-12T09:04:00.977Z,0.80
2018-12-12T09:06:27.210Z,0.80
2018-12-12T09:08:53.480Z,0.80
2018-12-12T09:11:19.738Z,0.80
2018-12-12T09:13:46.004Z,0.80
2018-12-12T09:16:12.282Z,0.90
2018-12-12T09:18:38.518Z,0.90
2018-12-12T09:21:04.840Z,0.90
2018-12-12T09:23:31.120Z,0.90
2018-12-12T09:25:57.464Z,0.90
2018-12-12T09:28:23.792Z,1.00
2018-12-12T09:30:49.999Z,1.00
2018-12-12T09:33:16.357Z,1.00
2018-12-12T09:35:42.717Z,1.10
2018-12-12T09:38:08.972Z,1.20
2018-12-12T09:40:35.624Z,1.20
2018-12-12T09:43:01.947Z,1.20
2018-12-12T09:45:28.212Z,1.20
2018-12-12T09:47:54.489Z,1.20
2018-12-12T09:50:21.021Z,1.20
2018-12-12T09:52:47.242Z,1.20
2018-12-12T09:55:15.586Z,1.20
2018-12-12T09:57:41.903Z,1.20
2018-12-12T10:00:08.392Z,1.20
2018-12-12T10:02:34.743Z,1.20
2018-12-12T10:05:01.032Z,1.20
2018-12-12T10:07:27.311Z,1.20
2018-12-12T10:09:53.587Z,1.20
2018-12-12T10:12:19.903Z,1.20
2018-12-12T10:14:46.167Z,1.20
2018-12-12T10:17:12.426Z,1.20
2018-12-12T10:19:38.721Z,1.20
2018-12-12T10:22:05.042Z,1.20
2018-12-12T10:24:31.549Z,1.20
2018-12-12T10:26:57.805Z,1.30
2018-12-12T10:29:24.068Z,1.30
2018-12-12T10:31:50.361Z,1.30
2018-12-12T10:34:16.652Z,1.30
2018-12-12T10:36:42.923Z,1.30
2018-12-12T10:39:09.234Z,1.30
2018-12-12T10:41:35.507Z,1.30
2018-12-12T10:44:01.789Z,1.30
2018-12-12T10:46:28.074Z,1.30
2018-12-12T10:48:54.382Z,1.30
2018-12-12T10:51:20.577Z,1.40
2018-12-12T10:53:46.849Z,1.30
2018-12-12T10:56:13.195Z,1.40
2018-12-12T10:58:39.510Z,1.40
2018-12-12T11:01:11.844Z,1.40
2018-12-12T11:03:44.128Z,1.40
2018-12-12T11:06:08.368Z,1.40
2018-12-12T11:08:34.590Z,1.40
2018-12-12T11:11:00.878Z,1.40
2018-12-12T11:13:27.161Z,1.40
2018-12-12T11:15:53.437Z,1.40
2018-12-12T11:18:19.755Z,1.40
2018-12-12T11:20:46.024Z,1.40
2018-12-12T11:23:12.338Z,1.40
2018-12-12T11:25:38.622Z,1.40
2018-12-12T11:28:04.914Z,1.40
2018-12-12T11:30:31.212Z,1.40
2018-12-12T11:32:57.503Z,1.50
2018-12-12T11:35:23.732Z,1.50
2018-12-12T11:37:49.966Z,1.50
2018-12-12T11:40:16.186Z,1.50
2018-12-12T11:42:42.480Z,1.50
2018-12-12T11:45:08.760Z,1.50
2018-12-12T11:47:34.992Z,1.50
2018-12-12T11:50:01.412Z,1.60
2018-12-12T11:52:27.665Z,1.50
2018-12-12T11:54:53.922Z,1.50
2018-12-12T11:57:20.628Z,1.50
2018-12-12T11:59:46.911Z,1.50
2018-12-12T12:02:13.204Z,1.50
2018-12-12T12:04:39.573Z,1.50
2018-12-12T12:07:05.953Z,1.50
2018-12-12T12:09:32.203Z,1.50
2018-12-12T12:11:58.467Z,1.50
2018-12-12T12:14:24.761Z,1.50
2018-12-12T12:16:51.000Z,1.50
2018-12-12T12:19:17.262Z,1.40
2018-12-12T12:21:43.562Z,1.40
2018-12-12T12:24:09.788Z,1.50
2018-12-12T12:26:36.190Z,1.50
2018-12-12T12:29:02.606Z,1.50
2018-12-12T12:31:29.047Z,1.50
2018-12-12T12:33:55.822Z,1.60
2018-12-12T12:36:22.056Z,1.60
2018-12-12T12:38:48.324Z,1.60
2018-12-12T12:41:14.596Z,1.60
2018-12-12T12:43:40.851Z,1.60
2018-12-12T12:46:07.130Z,1.60
2018-12-12T12:48:33.454Z,1.60
2018-12-12T12:50:59.749Z,1.60
2018-12-12T12:53:26.012Z,1.70
2018-12-12T12:55:52.528Z,1.70
2018-12-12T12:58:19.014Z,1.70
2018-12-12T13:00:45.373Z,1.70
2018-12-12T13:03:11.677Z,1.70
2018-12-12T13:05:37.892Z,1.70
2018-12-12T13:08:04.184Z,1.70
2018-12-12T13:10:30.777Z,1.70
2018-12-12T13:12:57.368Z,1.70
2018-12-12T13:15:23.935Z,1.70
2018-12-12T13:17:50.184Z,1.70
2018-12-12T13:20:16.540Z,1.70
2018-12-12T13:22:42.818Z,1.70
2018-12-12T13:25:09.108Z,1.70
2018-12-12T13:27:35.366Z,1.70
2018-12-12T13:30:01.669Z,1.70
2018-12-12T13:32:27.935Z,1.70
2018-12-12T13:34:54.222Z,1.70
2018-12-12T13:37:20.485Z,1.70
2018-12-12T13:39:46.746Z,1.70
2018-12-12T13:42:13.039Z,1.70
2018-12-12T13:44:39.296Z,1.70
2018-12-12T13:47:05.568Z,1.70
2018-12-12T13:49:31.853Z,1.70
2018-12-12T13:51:58.161Z,1.70
2018-12-12T13:54:24.431Z,1.70
2018-12-12T13:56:50.777Z,1.70
2018-12-12T13:59:17.050Z,1.70
2018-12-12T14:01:43.368Z,1.80
2018-12-12T14:04:09.628Z,1.80
2018-12-12T14:06:35.903Z,1.80
2018-12-12T14:09:02.596Z,1.80
2018-12-12T14:11:28.884Z,1.80
2018-12-12T14:13:55.189Z,1.80
2018-12-12T14:16:21.511Z,1.80
2018-12-12T14:18:47.788Z,1.80
2018-12-12T14:21:14.064Z,1.80
2018-12-12T14:23:40.321Z,1.80
2018-12-12T14:26:06.553Z,1.80
2018-12-12T14:28:32.847Z,1.80
2018-12-12T14:30:59.100Z,1.80
2018-12-12T14:33:25.344Z,1.80
2018-12-12T14:35:51.616Z,1.80
2018-12-12T14:38:17.925Z,1.80
2018-12-12T14:40:44.226Z,1.80
2018-12-12T14:43:10.496Z,1.80
2018-12-12T14:45:36.757Z,1.80
2018-12-12T14:48:03.113Z,1.80
2018-12-12T14:50:29.484Z,1.80
2018-12-12T14:52:55.733Z,1.80
2018-12-12T14:55:22.020Z,1.80
2018-12-12T15:00:38.637Z,1.80
2018-12-12T15:03:04.872Z,1.80
2018-12-12T15:05:31.143Z,1.80
2018-12-12T15:07:57.421Z,1.80
2018-12-12T15:10:23.713Z,1.80
2018-12-12T15:12:50.018Z,1.80
2018-12-12T15:15:16.310Z,1.80
2018-12-12T15:17:42.548Z,1.80
2018-12-12T15:20:08.908Z,1.70
2018-12-12T15:22:35.171Z,1.80
2018-12-12T15:25:01.604Z,1.70
2018-12-12T15:27:27.886Z,1.80
2018-12-12T15:29:54.120Z,1.80
2018-12-12T15:32:20.477Z,1.70
2018-12-12T15:34:46.736Z,1.70
2018-12-12T15:37:13.020Z,1.70
2018-12-12T15:39:39.286Z,1.70
2018-12-12T15:42:05.525Z,1.70
2018-12-12T15:44:31.795Z,1.70
2018-12-12T15:46:58.062Z,1.70
2018-12-12T15:49:24.380Z,1.70
2018-12-12T15:51:50.664Z,1.70
2018-12-12T15:54:16.924Z,1.70
2018-12-12T15:56:43.208Z,1.70
2018-12-12T15:59:09.558Z,1.70
2018-12-12T16:01:35.837Z,1.70
2018-12-12T16:04:02.102Z,1.70
2018-12-12T16:06:28.375Z,1.70
2018-12-12T16:08:54.654Z,1.70
2018-12-12T16:11:20.857Z,1.70
2018-12-12T16:13:47.148Z,1.70
2018-12-12T16:16:13.414Z,1.70
2018-12-12T16:18:39.677Z,1.70
2018-12-12T16:21:06.018Z,1.70
2018-12-12T16:23:32.326Z,1.70
2018-12-12T16:25:58.618Z,1.70
2018-12-12T16:28:24.910Z,1.70
2018-12-12T16:30:51.227Z,1.70
2018-12-12T16:33:17.541Z,1.70
2018-12-12T16:35:43.810Z,1.70
2018-12-12T16:38:10.122Z,1.70
2018-12-12T16:40:36.387Z,1.70
2018-12-12T16:43:02.792Z,1.70
2018-12-12T16:45:29.084Z,1.70
2018-12-12T16:47:55.312Z,1.70
2018-12-12T16:50:21.578Z,1.70
2018-12-12T16:52:47.877Z,1.70
2018-12-12T16:55:14.175Z,1.70
2018-12-12T16:57:40.470Z,1.60
2018-12-12T17:00:07.607Z,1.60
2018-12-12T17:02:33.936Z,1.60
2018-12-12T17:05:02.450Z,1.60
2018-12-12T17:07:28.521Z,1.60
2018-12-12T17:09:54.833Z,1.60
2018-12-12T17:12:21.117Z,1.70
2018-12-12T17:14:47.450Z,1.60
2018-12-12T17:17:13.801Z,1.60
2018-12-12T17:19:40.203Z,1.60
2018-12-12T17:22:06.432Z,1.60
2018-12-12T17:24:32.707Z,1.60
2018-12-12T17:26:58.996Z,1.60
2018-12-12T17:29:25.259Z,1.60
2018-12-12T17:31:51.536Z,1.60
2018-12-12T17:34:17.808Z,1.60
2018-12-12T17:36:44.164Z,1.60
2018-12-12T17:39:10.425Z,1.60
2018-12-12T17:41:36.671Z,1.60
2018-12-12T17:44:03.108Z,1.60
2018-12-12T17:46:29.420Z,1.60
2018-12-12T17:48:55.692Z,1.60
2018-12-12T17:51:22.017Z,1.60
2018-12-12T17:53:48.294Z,1.60
2018-12-12T17:56:14.603Z,1.60
2018-12-12T17:58:40.877Z,1.60
2018-12-12T18:01:07.386Z,1.60
2018-12-12T18:03:33.655Z,1.60
2018-12-12T18:05:59.889Z,1.60
2018-12-12T18:08:26.171Z,1.60
2018-12-12T18:10:52.452Z,1.60
2018-12-12T18:13:18.745Z,1.60
2018-12-12T18:15:45.015Z,1.60
2018-12-12T18:18:11.289Z,1.60
2018-12-12T18:20:37.597Z,1.60
2018-12-12T18:23:04.004Z,1.60
2018-12-12T18:25:30.313Z,1.60
2018-12-12T18:27:56.627Z,1.60
2018-12-12T18:30:22.893Z,1.60
2018-12-12T18:32:49.140Z,1.60
2018-12-12T18:35:21.735Z,1.60
2018-12-12T18:37:43.664Z,1.60
2018-12-12T18:40:09.926Z,1.50
2018-12-12T18:42:36.168Z,1.60
2018-12-12T18:45:02.875Z,1.50
2018-12-12T18:47:29.172Z,1.50
2018-12-12T18:49:55.462Z,1.50
2018-12-12T18:52:21.757Z,1.50
2018-12-12T18:54:48.100Z,1.50
2018-12-12T18:57:14.393Z,1.50
2018-12-12T18:59:40.733Z,1.50
2018-12-12T19:02:07.017Z,1.50
2018-12-12T19:04:33.450Z,1.50
2018-12-12T19:06:59.823Z,1.50
2018-12-12T19:09:26.054Z,1.50
2018-12-12T19:11:52.317Z,1.50
2018-12-12T19:14:18.566Z,1.50
2018-12-12T19:16:44.880Z,1.50
2018-12-12T19:19:12.536Z,1.50
2018-12-12T19:21:39.082Z,1.50
2018-12-12T19:24:05.309Z,1.50
2018-12-12T19:26:31.590Z,1.50
2018-12-12T19:28:57.884Z,1.50
2018-12-12T19:31:24.248Z,1.50
2018-12-12T19:33:50.559Z,1.50
2018-12-12T19:36:16.922Z,1.50
2018-12-12T19:38:43.256Z,1.50
2018-12-12T19:41:09.548Z,1.40
2018-12-12T19:43:35.800Z,1.40
2018-12-12T19:46:02.078Z,1.50
2018-12-12T19:48:28.403Z,1.40
2018-12-12T19:50:54.684Z,1.40
2018-12-12T19:53:20.945Z,1.40
2018-12-12T19:55:47.257Z,1.40
2018-12-12T19:58:13.544Z,1.40
2018-12-12T20:00:39.819Z,1.40
2018-12-12T20:03:06.145Z,1.40
2018-12-12T20:05:32.489Z,1.40
2018-12-12T20:07:58.811Z,1.40
2018-12-12T20:10:25.070Z,1.40
2018-12-12T20:12:51.465Z,1.40
2018-12-12T20:15:23.714Z,1.40
2018-12-12T20:17:50.039Z,1.40
2018-12-12T20:20:16.429Z,1.40
2018-12-12T20:22:42.709Z,1.40
2018-12-12T20:25:08.956Z,1.40
2018-12-12T20:27:35.274Z,1.30
2018-12-12T20:30:01.541Z,1.30
2018-12-12T20:32:27.829Z,1.30
2018-12-12T20:34:54.083Z,1.30
2018-12-12T20:37:20.363Z,1.30
2018-12-12T20:39:46.665Z,1.30
2018-12-12T20:42:12.916Z,1.30
2018-12-12T20:44:39.332Z,1.30
2018-12-12T20:47:05.665Z,1.30
2018-12-12T20:49:31.912Z,1.20
2018-12-12T20:51:58.284Z,1.20
2018-12-12T20:54:24.565Z,1.20
2018-12-12T20:56:51.725Z,1.20
2018-12-12T20:59:18.112Z,1.20
2018-12-12T21:01:44.364Z,1.10
2018-12-12T21:04:10.654Z,1.10
2018-12-12T21:06:36.911Z,1.10
2018-12-12T21:09:05.144Z,1.10
2018-12-12T21:11:31.412Z,1.10
2018-12-12T21:13:57.839Z,1.10
2018-12-12T21:16:24.086Z,1.10
2018-12-12T21:18:50.869Z,1.10
2018-12-12T21:21:17.085Z,1.10
2018-12-12T21:23:43.346Z,1.10
2018-12-12T21:26:10.214Z,1.10
2018-12-12T21:28:36.522Z,1.10
2018-12-12T21:31:02.978Z,1.10
2018-12-12T21:33:29.266Z,1.10
2018-12-12T21:36:00.713Z,1.10
2018-12-12T21:38:23.794Z,1.10
2018-12-12T21:40:50.088Z,1.20
2018-12-12T21:43:16.489Z,1.20
2018-12-12T21:45:42.764Z,1.20
2018-12-12T21:48:09.039Z,1.20
2018-12-12T21:50:36.412Z,1.20
2018-12-12T21:53:04.459Z,1.20
2018-12-12T21:55:30.738Z,1.20
2018-12-12T21:57:57.098Z,1.30
2018-12-12T22:00:23.378Z,1.30
2018-12-12T22:02:49.668Z,1.30
2018-12-12T22:05:15.966Z,1.30
2018-12-12T22:07:42.320Z,1.30
2018-12-12T22:10:08.669Z,1.30
2018-12-12T22:12:34.950Z,1.30
2018-12-12T22:15:01.253Z,1.30
2018-12-12T22:17:27.453Z,1.20
2018-12-12T22:19:53.714Z,1.20
2018-12-12T22:22:19.977Z,1.10
2018-12-12T22:24:46.268Z,1.10
2018-12-12T22:27:12.528Z,1.10
2018-12-12T22:29:38.842Z,1.10
2018-12-12T22:32:05.149Z,1.10
2018-12-12T22:34:31.442Z,1.00
2018-12-12T22:36:57.862Z,1.00
2018-12-12T22:39:24.103Z,1.00
2018-12-12T22:41:50.510Z,1.00
2018-12-12T22:44:16.755Z,1.00
2018-12-12T22:46:43.050Z,1.00
2018-12-12T22:49:09.324Z,1.00
2018-12-12T22:51:35.626Z,1.00
2018-12-12T22:54:01.870Z,0.90
2018-12-12T22:56:28.180Z,0.90
2018-12-12T22:58:54.439Z,0.90
2018-12-12T23:01:23.797Z,0.90
2018-12-12T23:03:50.221Z,0.90
2018-12-12T23:06:20.347Z,0.90
2018-12-12T23:08:44.797Z,0.90
2018-12-12T23:11:11.139Z,0.90
2018-12-12T23:13:37.373Z,0.90
2018-12-12T23:16:03.669Z,0.90
2018-12-12T23:18:29.950Z,0.80
2018-12-12T23:20:56.257Z,0.80
2018-12-12T23:23:22.537Z,0.80
2018-12-12T23:25:48.810Z,0.70
2018-12-12T23:28:15.076Z,0.80
2018-12-12T23:30:41.386Z,0.80
2018-12-12T23:33:07.710Z,0.70
2018-12-12T23:35:33.914Z,0.70
2018-12-12T23:38:00.162Z,0.70
2018-12-12T23:40:26.452Z,0.70
2018-12-12T23:42:52.705Z,0.60
2018-12-12T23:45:19.012Z,0.60
2018-12-12T23:47:45.266Z,0.60
2018-12-12T23:50:11.660Z,0.50
2018-12-12T23:52:37.930Z,0.50
2018-12-12T23:55:04.336Z,0.50
2018-12-12T23:57:30.614Z,0.50
2018-12-12T23:59:56.895Z,0.50
